sensor_id;sensor_type;location;lat;lon;timestamp;P1;durP1;ratioP1;P2;durP2;ratioP2
4704;SDS011;2366;51.332;6.610;2022-10-16T00:01:18;7.85;;;4.22;;
4704;SDS011;2366;51.332;6.610;2022-10-16T00:03:45;10.80;;;5.70;;
4704;SDS011;2366;51.332;6.610;2022-10-16T00:06:12;15.35;;;5.43;;
4704;SDS011;2366;51.332;6.610;2022-10-16T00:08:39;6.95;;;4.90;;
4704;SDS011;2366;51.332;6.610;2022-10-16T00:11:09;14.18;;;5.18;;
4704;SDS011;2366;51.332;6.610;2022-10-16T00:13:40;7.78;;;6.18;;
4704;SDS011;2366;51.332;6.610;2022-10-16T00:16:07;10.77;;;4.72;;
4704;SDS011;2366;51.332;6.610;2022-10-16T00:18:34;8.73;;;4.22;;
4704;SDS011;2366;51.332;6.610;2022-10-16T00:21:03;8.53;;;4.87;;
4704;SDS011;2366;51.332;6.610;2022-10-16T00:23:30;15.95;;;5.30;;
4704;SDS011;2366;51.332;6.610;2022-10-16T00:25:57;9.63;;;5.38;;
4704;SDS011;2366;51.332;6.610;2022-10-16T00:28:25;9.18;;;4.15;;
4704;SDS011;2366;51.332;6.610;2022-10-16T00:30:51;17.17;;;4.67;;
4704;SDS011;2366;51.332;6.610;2022-10-16T00:33:17;18.53;;;6.00;;
4704;SDS011;2366;51.332;6.610;2022-10-16T00:35:42;11.17;;;4.57;;
4704;SDS011;2366;51.332;6.610;2022-10-16T00:38:08;8.88;;;3.88;;
4704;SDS011;2366;51.332;6.610;2022-10-16T00:40:33;9.20;;;5.17;;
4704;SDS011;2366;51.332;6.610;2022-10-16T00:42:59;10.23;;;4.67;;
4704;SDS011;2366;51.332;6.610;2022-10-16T00:45:24;7.47;;;3.97;;
4704;SDS011;2366;51.332;6.610;2022-10-16T00:47:49;7.83;;;3.70;;
4704;SDS011;2366;51.332;6.610;2022-10-16T00:50:24;10.93;;;4.15;;
4704;SDS011;2366;51.332;6.610;2022-10-16T00:52:53;10.02;;;3.95;;
4704;SDS011;2366;51.332;6.610;2022-10-16T00:55:20;4.10;;;3.70;;
4704;SDS011;2366;51.332;6.610;2022-10-16T00:57:46;9.20;;;4.43;;
4704;SDS011;2366;51.332;6.610;2022-10-16T01:00:15;6.60;;;3.95;;
4704;SDS011;2366;51.332;6.610;2022-10-16T01:02:51;5.80;;;3.88;;
4704;SDS011;2366;51.332;6.610;2022-10-16T01:05:17;5.13;;;4.55;;
4704;SDS011;2366;51.332;6.610;2022-10-16T01:10:30;7.35;;;3.35;;
4704;SDS011;2366;51.332;6.610;2022-10-16T01:12:59;9.73;;;4.70;;
4704;SDS011;2366;51.332;6.610;2022-10-16T01:15:38;9.43;;;3.55;;
4704;SDS011;2366;51.332;6.610;2022-10-16T01:18:28;10.38;;;3.88;;
4704;SDS011;2366;51.332;6.610;2022-10-16T01:21:01;8.20;;;4.68;;
4704;SDS011;2366;51.332;6.610;2022-10-16T01:28:55;3.47;;;3.15;;
4704;SDS011;2366;51.332;6.610;2022-10-16T01:31:27;8.48;;;2.75;;
4704;SDS011;2366;51.332;6.610;2022-10-16T01:33:59;5.20;;;2.70;;
4704;SDS011;2366;51.332;6.610;2022-10-16T01:36:31;6.90;;;2.58;;
4704;SDS011;2366;51.332;6.610;2022-10-16T01:39:21;6.47;;;3.42;;
4704;SDS011;2366;51.332;6.610;2022-10-16T01:41:58;5.80;;;2.80;;
4704;SDS011;2366;51.332;6.610;2022-10-16T01:44:30;6.57;;;3.05;;
4704;SDS011;2366;51.332;6.610;2022-10-16T01:46:58;6.18;;;2.33;;
4704;SDS011;2366;51.332;6.610;2022-10-16T01:49:25;3.38;;;2.00;;
4704;SDS011;2366;51.332;6.610;2022-10-16T01:51:55;4.03;;;2.15;;
4704;SDS011;2366;51.332;6.610;2022-10-16T01:54:25;3.05;;;2.05;;
4704;SDS011;2366;51.332;6.610;2022-10-16T01:56:54;2.03;;;1.80;;
4704;SDS011;2366;51.332;6.610;2022-10-16T01:59:21;3.28;;;2.40;;
4704;SDS011;2366;51.332;6.610;2022-10-16T02:01:55;2.45;;;2.25;;
4704;SDS011;2366;51.332;6.610;2022-10-16T02:04:24;2.78;;;1.80;;
4704;SDS011;2366;51.332;6.610;2022-10-16T02:06:58;3.35;;;2.75;;
4704;SDS011;2366;51.332;6.610;2022-10-16T02:09:24;6.13;;;2.33;;
4704;SDS011;2366;51.332;6.610;2022-10-16T02:11:50;2.47;;;2.27;;
4704;SDS011;2366;51.332;6.610;2022-10-16T02:14:19;3.28;;;2.97;;
4704;SDS011;2366;51.332;6.610;2022-10-16T02:16:46;4.65;;;2.53;;
4704;SDS011;2366;51.332;6.610;2022-10-16T02:19:12;2.60;;;2.00;;
4704;SDS011;2366;51.332;6.610;2022-10-16T02:26:49;2.88;;;2.35;;
4704;SDS011;2366;51.332;6.610;2022-10-16T02:29:34;8.30;;;2.28;;
4704;SDS011;2366;51.332;6.610;2022-10-16T02:32:05;3.28;;;1.90;;
4704;SDS011;2366;51.332;6.610;2022-10-16T02:34:33;3.13;;;1.83;;
4704;SDS011;2366;51.332;6.610;2022-10-16T02:37:00;3.65;;;1.95;;
4704;SDS011;2366;51.332;6.610;2022-10-16T02:39:27;6.68;;;1.70;;
4704;SDS011;2366;51.332;6.610;2022-10-16T02:41:54;2.03;;;1.80;;
4704;SDS011;2366;51.332;6.610;2022-10-16T02:44:19;1.67;;;1.57;;
4704;SDS011;2366;51.332;6.610;2022-10-16T02:46:45;4.30;;;1.87;;
4704;SDS011;2366;51.332;6.610;2022-10-16T02:49:10;1.97;;;1.60;;
4704;SDS011;2366;51.332;6.610;2022-10-16T02:51:35;4.00;;;1.77;;
4704;SDS011;2366;51.332;6.610;2022-10-16T02:54:01;2.20;;;1.37;;
4704;SDS011;2366;51.332;6.610;2022-10-16T02:56:27;1.70;;;1.60;;
4704;SDS011;2366;51.332;6.610;2022-10-16T02:58:53;1.33;;;1.23;;
4704;SDS011;2366;51.332;6.610;2022-10-16T03:01:18;3.87;;;1.40;;
4704;SDS011;2366;51.332;6.610;2022-10-16T03:03:43;1.60;;;1.50;;
4704;SDS011;2366;51.332;6.610;2022-10-16T03:06:09;1.27;;;1.00;;
4704;SDS011;2366;51.332;6.610;2022-10-16T03:08:34;2.60;;;1.10;;
4704;SDS011;2366;51.332;6.610;2022-10-16T03:10:59;1.57;;;1.43;;
4704;SDS011;2366;51.332;6.610;2022-10-16T03:13:25;1.43;;;1.20;;
4704;SDS011;2366;51.332;6.610;2022-10-16T03:15:50;4.73;;;1.50;;
4704;SDS011;2366;51.332;6.610;2022-10-16T03:18:15;3.17;;;2.13;;
4704;SDS011;2366;51.332;6.610;2022-10-16T03:20:42;16.07;;;1.67;;
4704;SDS011;2366;51.332;6.610;2022-10-16T03:23:08;1.33;;;1.23;;
4704;SDS011;2366;51.332;6.610;2022-10-16T03:25:33;2.40;;;1.40;;
4704;SDS011;2366;51.332;6.610;2022-10-16T03:27:59;2.97;;;1.60;;
4704;SDS011;2366;51.332;6.610;2022-10-16T03:30:24;3.13;;;1.47;;
4704;SDS011;2366;51.332;6.610;2022-10-16T03:32:49;1.23;;;1.00;;
4704;SDS011;2366;51.332;6.610;2022-10-16T03:35:19;1.45;;;1.25;;
4704;SDS011;2366;51.332;6.610;2022-10-16T03:37:45;2.22;;;1.30;;
4704;SDS011;2366;51.332;6.610;2022-10-16T03:40:10;4.80;;;1.40;;
4704;SDS011;2366;51.332;6.610;2022-10-16T03:42:36;2.70;;;1.33;;
4704;SDS011;2366;51.332;6.610;2022-10-16T03:45:01;10.23;;;1.57;;
4704;SDS011;2366;51.332;6.610;2022-10-16T03:47:26;7.30;;;1.57;;
4704;SDS011;2366;51.332;6.610;2022-10-16T03:49:52;2.20;;;1.10;;
4704;SDS011;2366;51.332;6.610;2022-10-16T03:52:17;2.43;;;1.40;;
4704;SDS011;2366;51.332;6.610;2022-10-16T03:54:42;1.30;;;1.10;;
4704;SDS011;2366;51.332;6.610;2022-10-16T03:57:08;2.57;;;1.50;;
4704;SDS011;2366;51.332;6.610;2022-10-16T03:59:33;4.87;;;1.40;;
4704;SDS011;2366;51.332;6.610;2022-10-16T04:01:59;8.83;;;1.50;;
4704;SDS011;2366;51.332;6.610;2022-10-16T04:04:24;1.60;;;1.10;;
4704;SDS011;2366;51.332;6.610;2022-10-16T04:06:50;1.53;;;1.43;;
4704;SDS011;2366;51.332;6.610;2022-10-16T04:09:15;1.47;;;1.37;;
4704;SDS011;2366;51.332;6.610;2022-10-16T04:11:40;8.03;;;1.43;;
4704;SDS011;2366;51.332;6.610;2022-10-16T04:14:06;2.30;;;1.60;;
4704;SDS011;2366;51.332;6.610;2022-10-16T04:16:31;2.30;;;1.13;;
4704;SDS011;2366;51.332;6.610;2022-10-16T04:18:56;3.27;;;2.13;;
4704;SDS011;2366;51.332;6.610;2022-10-16T04:21:22;5.10;;;1.30;;
4704;SDS011;2366;51.332;6.610;2022-10-16T04:23:47;3.67;;;1.40;;
4704;SDS011;2366;51.332;6.610;2022-10-16T04:26:13;1.83;;;1.35;;
4704;SDS011;2366;51.332;6.610;2022-10-16T04:28:38;1.30;;;1.20;;
4704;SDS011;2366;51.332;6.610;2022-10-16T04:31:04;1.67;;;1.47;;
4704;SDS011;2366;51.332;6.610;2022-10-16T04:33:31;2.13;;;1.48;;
4704;SDS011;2366;51.332;6.610;2022-10-16T04:35:57;1.47;;;1.37;;
4704;SDS011;2366;51.332;6.610;2022-10-16T04:38:23;1.38;;;1.20;;
4704;SDS011;2366;51.332;6.610;2022-10-16T04:40:49;1.63;;;1.52;;
4704;SDS011;2366;51.332;6.610;2022-10-16T04:43:15;5.20;;;1.60;;
4704;SDS011;2366;51.332;6.610;2022-10-16T04:45:40;1.80;;;1.47;;
4704;SDS011;2366;51.332;6.610;2022-10-16T04:48:06;4.63;;;2.10;;
4704;SDS011;2366;51.332;6.610;2022-10-16T04:50:31;5.07;;;1.60;;
4704;SDS011;2366;51.332;6.610;2022-10-16T04:52:56;2.33;;;1.43;;
4704;SDS011;2366;51.332;6.610;2022-10-16T04:55:22;2.40;;;1.60;;
4704;SDS011;2366;51.332;6.610;2022-10-16T04:57:47;1.33;;;1.23;;
4704;SDS011;2366;51.332;6.610;2022-10-16T05:00:12;2.83;;;1.53;;
4704;SDS011;2366;51.332;6.610;2022-10-16T05:02:38;2.57;;;1.83;;
4704;SDS011;2366;51.332;6.610;2022-10-16T05:05:03;2.43;;;2.23;;
4704;SDS011;2366;51.332;6.610;2022-10-16T05:07:29;2.60;;;1.90;;
4704;SDS011;2366;51.332;6.610;2022-10-16T05:09:55;2.60;;;1.90;;
4704;SDS011;2366;51.332;6.610;2022-10-16T05:12:20;3.30;;;2.23;;
4704;SDS011;2366;51.332;6.610;2022-10-16T05:14:45;1.60;;;1.50;;
4704;SDS011;2366;51.332;6.610;2022-10-16T05:17:11;3.70;;;1.30;;
4704;SDS011;2366;51.332;6.610;2022-10-16T05:19:36;2.40;;;1.67;;
4704;SDS011;2366;51.332;6.610;2022-10-16T05:22:01;2.33;;;1.30;;
4704;SDS011;2366;51.332;6.610;2022-10-16T05:24:27;1.87;;;1.77;;
4704;SDS011;2366;51.332;6.610;2022-10-16T05:26:52;3.00;;;1.60;;
4704;SDS011;2366;51.332;6.610;2022-10-16T05:29:18;1.83;;;1.73;;
4704;SDS011;2366;51.332;6.610;2022-10-16T05:31:44;2.87;;;2.23;;
4704;SDS011;2366;51.332;6.610;2022-10-16T05:34:09;3.23;;;1.83;;
4704;SDS011;2366;51.332;6.610;2022-10-16T05:36:35;5.90;;;2.83;;
4704;SDS011;2366;51.332;6.610;2022-10-16T05:39:00;3.07;;;2.20;;
4704;SDS011;2366;51.332;6.610;2022-10-16T05:41:26;1.77;;;1.53;;
4704;SDS011;2366;51.332;6.610;2022-10-16T05:43:51;1.40;;;1.30;;
4704;SDS011;2366;51.332;6.610;2022-10-16T05:46:18;1.75;;;1.55;;
4704;SDS011;2366;51.332;6.610;2022-10-16T05:48:44;2.67;;;2.07;;
4704;SDS011;2366;51.332;6.610;2022-10-16T05:51:10;5.80;;;1.83;;
4704;SDS011;2366;51.332;6.610;2022-10-16T05:53:38;3.25;;;1.88;;
4704;SDS011;2366;51.332;6.610;2022-10-16T05:56:04;4.40;;;2.20;;
4704;SDS011;2366;51.332;6.610;2022-10-16T05:58:31;2.10;;;2.00;;
4704;SDS011;2366;51.332;6.610;2022-10-16T06:00:59;3.00;;;2.80;;
4704;SDS011;2366;51.332;6.610;2022-10-16T06:03:26;3.13;;;2.92;;
4704;SDS011;2366;51.332;6.610;2022-10-16T06:05:52;2.20;;;2.03;;
4704;SDS011;2366;51.332;6.610;2022-10-16T06:08:19;2.33;;;2.13;;
4704;SDS011;2366;51.332;6.610;2022-10-16T06:10:45;4.20;;;2.67;;
4704;SDS011;2366;51.332;6.610;2022-10-16T06:13:11;12.20;;;2.43;;
4704;SDS011;2366;51.332;6.610;2022-10-16T06:15:37;3.10;;;2.22;;
4704;SDS011;2366;51.332;6.610;2022-10-16T06:18:04;3.10;;;2.60;;
4704;SDS011;2366;51.332;6.610;2022-10-16T06:20:30;2.40;;;2.20;;
4704;SDS011;2366;51.332;6.610;2022-10-16T06:22:55;3.00;;;2.53;;
4704;SDS011;2366;51.332;6.610;2022-10-16T06:25:22;8.05;;;2.60;;
4704;SDS011;2366;51.332;6.610;2022-10-16T06:27:47;3.10;;;2.90;;
4704;SDS011;2366;51.332;6.610;2022-10-16T06:30:12;2.63;;;2.10;;
4704;SDS011;2366;51.332;6.610;2022-10-16T06:32:38;3.50;;;2.90;;
4704;SDS011;2366;51.332;6.610;2022-10-16T06:35:03;2.30;;;2.10;;
4704;SDS011;2366;51.332;6.610;2022-10-16T06:37:29;2.50;;;2.13;;
4704;SDS011;2366;51.332;6.610;2022-10-16T06:39:54;6.83;;;2.73;;
4704;SDS011;2366;51.332;6.610;2022-10-16T06:42:19;2.30;;;2.03;;
4704;SDS011;2366;51.332;6.610;2022-10-16T06:44:45;6.03;;;3.10;;
4704;SDS011;2366;51.332;6.610;2022-10-16T06:47:10;5.70;;;2.90;;
4704;SDS011;2366;51.332;6.610;2022-10-16T06:49:36;3.20;;;2.77;;
4704;SDS011;2366;51.332;6.610;2022-10-16T06:52:01;2.53;;;2.33;;
4704;SDS011;2366;51.332;6.610;2022-10-16T06:54:27;2.73;;;2.63;;
4704;SDS011;2366;51.332;6.610;2022-10-16T06:56:53;12.97;;;2.53;;
4704;SDS011;2366;51.332;6.610;2022-10-16T06:59:19;2.60;;;2.40;;
4704;SDS011;2366;51.332;6.610;2022-10-16T07:01:45;3.33;;;2.47;;
4704;SDS011;2366;51.332;6.610;2022-10-16T07:04:10;3.73;;;2.80;;
4704;SDS011;2366;51.332;6.610;2022-10-16T07:06:36;4.10;;;2.57;;
4704;SDS011;2366;51.332;6.610;2022-10-16T07:09:03;2.40;;;2.10;;
4704;SDS011;2366;51.332;6.610;2022-10-16T07:11:30;3.03;;;2.75;;
4704;SDS011;2366;51.332;6.610;2022-10-16T07:13:55;4.13;;;2.40;;
4704;SDS011;2366;51.332;6.610;2022-10-16T07:16:21;4.43;;;3.03;;
4704;SDS011;2366;51.332;6.610;2022-10-16T07:18:51;3.83;;;2.67;;
4704;SDS011;2366;51.332;6.610;2022-10-16T07:21:23;3.67;;;2.40;;
4704;SDS011;2366;51.332;6.610;2022-10-16T07:23:50;3.25;;;2.92;;
4704;SDS011;2366;51.332;6.610;2022-10-16T07:26:20;2.67;;;2.45;;
4704;SDS011;2366;51.332;6.610;2022-10-16T07:28:46;3.30;;;2.27;;
4704;SDS011;2366;51.332;6.610;2022-10-16T07:31:12;5.50;;;3.30;;
4704;SDS011;2366;51.332;6.610;2022-10-16T07:33:39;2.35;;;2.15;;
4704;SDS011;2366;51.332;6.610;2022-10-16T07:36:06;7.85;;;2.97;;
4704;SDS011;2366;51.332;6.610;2022-10-16T07:38:32;2.60;;;2.27;;
4704;SDS011;2366;51.332;6.610;2022-10-16T07:40:58;2.03;;;1.83;;
4704;SDS011;2366;51.332;6.610;2022-10-16T07:43:24;2.13;;;1.92;;
4704;SDS011;2366;51.332;6.610;2022-10-16T07:45:50;3.77;;;2.00;;
4704;SDS011;2366;51.332;6.610;2022-10-16T07:48:16;5.50;;;1.57;;
4704;SDS011;2366;51.332;6.610;2022-10-16T07:50:43;3.50;;;2.00;;
4704;SDS011;2366;51.332;6.610;2022-10-16T07:53:10;6.63;;;1.20;;
4704;SDS011;2366;51.332;6.610;2022-10-16T07:55:36;2.30;;;1.20;;
4704;SDS011;2366;51.332;6.610;2022-10-16T07:58:01;3.03;;;1.50;;
4704;SDS011;2366;51.332;6.610;2022-10-16T08:00:27;3.23;;;1.37;;
4704;SDS011;2366;51.332;6.610;2022-10-16T08:02:52;2.33;;;1.37;;
4704;SDS011;2366;51.332;6.610;2022-10-16T08:05:17;3.33;;;0.90;;
4704;SDS011;2366;51.332;6.610;2022-10-16T08:07:47;2.30;;;1.10;;
4704;SDS011;2366;51.332;6.610;2022-10-16T08:10:15;1.53;;;1.33;;
4704;SDS011;2366;51.332;6.610;2022-10-16T08:12:42;1.57;;;1.47;;
4704;SDS011;2366;51.332;6.610;2022-10-16T08:15:07;3.67;;;1.00;;
4704;SDS011;2366;51.332;6.610;2022-10-16T08:17:33;5.77;;;1.43;;
4704;SDS011;2366;51.332;6.610;2022-10-16T08:19:58;1.37;;;0.97;;
4704;SDS011;2366;51.332;6.610;2022-10-16T08:22:24;1.40;;;0.90;;
4704;SDS011;2366;51.332;6.610;2022-10-16T08:24:49;1.10;;;0.90;;
4704;SDS011;2366;51.332;6.610;2022-10-16T08:27:14;4.60;;;1.13;;
4704;SDS011;2366;51.332;6.610;2022-10-16T08:29:40;5.70;;;0.93;;
4704;SDS011;2366;51.332;6.610;2022-10-16T08:32:05;2.07;;;0.90;;
4704;SDS011;2366;51.332;6.610;2022-10-16T08:34:31;4.97;;;0.60;;
4704;SDS011;2366;51.332;6.610;2022-10-16T08:36:56;3.03;;;0.90;;
4704;SDS011;2366;51.332;6.610;2022-10-16T08:39:21;1.23;;;0.80;;
4704;SDS011;2366;51.332;6.610;2022-10-16T08:49:32;7.00;;;0.97;;
4704;SDS011;2366;51.332;6.610;2022-10-16T08:51:57;1.00;;;0.93;;
4704;SDS011;2366;51.332;6.610;2022-10-16T08:57:11;1.43;;;0.83;;
4704;SDS011;2366;51.332;6.610;2022-10-16T08:59:39;1.20;;;0.57;;
4704;SDS011;2366;51.332;6.610;2022-10-16T09:02:13;1.27;;;1.00;;
4704;SDS011;2366;51.332;6.610;2022-10-16T09:18:34;1.00;;;0.90;;
4704;SDS011;2366;51.332;6.610;2022-10-16T09:21:21;0.70;;;0.60;;
4704;SDS011;2366;51.332;6.610;2022-10-16T09:23:50;1.40;;;0.80;;
4704;SDS011;2366;51.332;6.610;2022-10-16T09:26:16;0.73;;;0.60;;
4704;SDS011;2366;51.332;6.610;2022-10-16T09:28:44;3.60;;;1.33;;
4704;SDS011;2366;51.332;6.610;2022-10-16T09:31:18;1.60;;;0.90;;
4704;SDS011;2366;51.332;6.610;2022-10-16T09:33:48;2.00;;;0.70;;
4704;SDS011;2366;51.332;6.610;2022-10-16T09:36:18;3.80;;;0.80;;
4704;SDS011;2366;51.332;6.610;2022-10-16T09:38:45;4.10;;;0.90;;
4704;SDS011;2366;51.332;6.610;2022-10-16T09:41:17;1.07;;;0.87;;
4704;SDS011;2366;51.332;6.610;2022-10-16T09:48:53;5.20;;;1.20;;
4704;SDS011;2366;51.332;6.610;2022-10-16T09:51:28;3.00;;;1.07;;
4704;SDS011;2366;51.332;6.610;2022-10-16T09:56:25;1.75;;;0.95;;
4704;SDS011;2366;51.332;6.610;2022-10-16T09:58:56;1.60;;;0.93;;
4704;SDS011;2366;51.332;6.610;2022-10-16T10:01:26;1.48;;;0.80;;
4704;SDS011;2366;51.332;6.610;2022-10-16T10:04:02;2.38;;;1.00;;
4704;SDS011;2366;51.332;6.610;2022-10-16T10:06:29;2.90;;;1.20;;
4704;SDS011;2366;51.332;6.610;2022-10-16T10:09:04;2.15;;;0.98;;
4704;SDS011;2366;51.332;6.610;2022-10-16T10:12:03;1.35;;;0.95;;
4704;SDS011;2366;51.332;6.610;2022-10-16T10:17:23;2.67;;;0.90;;
4704;SDS011;2366;51.332;6.610;2022-10-16T10:19:54;1.55;;;0.70;;
4704;SDS011;2366;51.332;6.610;2022-10-16T10:22:41;2.13;;;1.05;;
4704;SDS011;2366;51.332;6.610;2022-10-16T10:46:51;5.75;;;1.60;;
4704;SDS011;2366;51.332;6.610;2022-10-16T10:51:56;2.63;;;0.83;;
4704;SDS011;2366;51.332;6.610;2022-10-16T10:54:30;1.60;;;0.80;;
4704;SDS011;2366;51.332;6.610;2022-10-16T11:00:20;6.37;;;1.03;;
4704;SDS011;2366;51.332;6.610;2022-10-16T11:02:58;1.70;;;1.03;;
4704;SDS011;2366;51.332;6.610;2022-10-16T11:11:07;1.38;;;0.90;;
4704;SDS011;2366;51.332;6.610;2022-10-16T11:16:28;3.50;;;0.70;;
4704;SDS011;2366;51.332;6.610;2022-10-16T11:19:03;2.95;;;1.17;;
4704;SDS011;2366;51.332;6.610;2022-10-16T11:21:40;2.05;;;0.70;;
4704;SDS011;2366;51.332;6.610;2022-10-16T11:27:11;2.47;;;1.00;;
4704;SDS011;2366;51.332;6.610;2022-10-16T11:29:46;1.30;;;0.80;;
4704;SDS011;2366;51.332;6.610;2022-10-16T11:32:20;3.80;;;0.98;;
4704;SDS011;2366;51.332;6.610;2022-10-16T11:34:53;3.20;;;0.98;;
4704;SDS011;2366;51.332;6.610;2022-10-16T11:37:24;6.00;;;1.20;;
4704;SDS011;2366;51.332;6.610;2022-10-16T11:39:57;2.55;;;0.93;;
4704;SDS011;2366;51.332;6.610;2022-10-16T11:42:37;0.77;;;0.73;;
4704;SDS011;2366;51.332;6.610;2022-10-16T11:55:38;1.13;;;0.63;;
4704;SDS011;2366;51.332;6.610;2022-10-16T11:58:06;2.57;;;1.13;;
4704;SDS011;2366;51.332;6.610;2022-10-16T12:04:03;2.50;;;1.10;;
4704;SDS011;2366;51.332;6.610;2022-10-16T12:06:28;1.53;;;1.00;;
4704;SDS011;2366;51.332;6.610;2022-10-16T12:08:59;2.97;;;0.73;;
4704;SDS011;2366;51.332;6.610;2022-10-16T12:14:04;1.55;;;0.73;;
4704;SDS011;2366;51.332;6.610;2022-10-16T12:19:22;2.83;;;1.07;;
4704;SDS011;2366;51.332;6.610;2022-10-16T12:21:50;1.07;;;0.80;;
4704;SDS011;2366;51.332;6.610;2022-10-16T12:24:36;1.35;;;0.95;;
4704;SDS011;2366;51.332;6.610;2022-10-16T12:27:04;2.72;;;1.55;;
4704;SDS011;2366;51.332;6.610;2022-10-16T12:29:43;4.17;;;1.63;;
4704;SDS011;2366;51.332;6.610;2022-10-16T12:35:01;1.93;;;1.10;;
4704;SDS011;2366;51.332;6.610;2022-10-16T12:37:31;5.87;;;1.43;;
4704;SDS011;2366;51.332;6.610;2022-10-16T12:40:11;1.10;;;0.90;;
4704;SDS011;2366;51.332;6.610;2022-10-16T12:42:40;4.37;;;1.40;;
4704;SDS011;2366;51.332;6.610;2022-10-16T12:47:53;9.90;;;2.20;;
4704;SDS011;2366;51.332;6.610;2022-10-16T12:52:48;2.30;;;0.90;;
4704;SDS011;2366;51.332;6.610;2022-10-16T12:55:15;5.40;;;3.23;;
4704;SDS011;2366;51.332;6.610;2022-10-16T13:23:26;5.90;;;0.90;;
4704;SDS011;2366;51.332;6.610;2022-10-16T13:28:28;3.17;;;1.23;;
4704;SDS011;2366;51.332;6.610;2022-10-16T13:30:57;1.63;;;0.93;;
4704;SDS011;2366;51.332;6.610;2022-10-16T13:33:32;1.17;;;1.08;;
4704;SDS011;2366;51.332;6.610;2022-10-16T13:36:00;2.80;;;0.98;;
4704;SDS011;2366;51.332;6.610;2022-10-16T13:38:28;4.95;;;0.90;;
4704;SDS011;2366;51.332;6.610;2022-10-16T13:41:05;2.67;;;0.85;;
4704;SDS011;2366;51.332;6.610;2022-10-16T13:43:45;1.52;;;0.73;;
4704;SDS011;2366;51.332;6.610;2022-10-16T13:46:15;3.83;;;1.00;;
4704;SDS011;2366;51.332;6.610;2022-10-16T13:48:41;0.82;;;0.68;;
4704;SDS011;2366;51.332;6.610;2022-10-16T13:51:14;1.50;;;0.70;;
4704;SDS011;2366;51.332;6.610;2022-10-16T13:53:42;2.53;;;1.10;;
4704;SDS011;2366;51.332;6.610;2022-10-16T13:56:16;4.00;;;0.90;;
4704;SDS011;2366;51.332;6.610;2022-10-16T13:58:43;2.90;;;0.87;;
4704;SDS011;2366;51.332;6.610;2022-10-16T14:01:20;2.10;;;0.70;;
4704;SDS011;2366;51.332;6.610;2022-10-16T14:03:49;1.33;;;0.83;;
4704;SDS011;2366;51.332;6.610;2022-10-16T14:06:17;4.07;;;1.00;;
4704;SDS011;2366;51.332;6.610;2022-10-16T14:08:50;0.93;;;0.60;;
4704;SDS011;2366;51.332;6.610;2022-10-16T14:11:22;1.30;;;0.83;;
4704;SDS011;2366;51.332;6.610;2022-10-16T14:13:48;2.10;;;0.80;;
4704;SDS011;2366;51.332;6.610;2022-10-16T14:16:26;8.18;;;0.95;;
4704;SDS011;2366;51.332;6.610;2022-10-16T14:18:57;2.05;;;0.88;;
4704;SDS011;2366;51.332;6.610;2022-10-16T14:21:23;6.47;;;1.20;;
4704;SDS011;2366;51.332;6.610;2022-10-16T14:23:49;2.50;;;1.00;;
4704;SDS011;2366;51.332;6.610;2022-10-16T14:26:16;1.27;;;0.90;;
4704;SDS011;2366;51.332;6.610;2022-10-16T14:28:44;1.13;;;0.82;;
4704;SDS011;2366;51.332;6.610;2022-10-16T14:33:56;0.93;;;0.90;;
4704;SDS011;2366;51.332;6.610;2022-10-16T14:36:22;0.70;;;0.60;;
4704;SDS011;2366;51.332;6.610;2022-10-16T14:38:54;2.20;;;0.83;;
4704;SDS011;2366;51.332;6.610;2022-10-16T14:41:25;2.72;;;1.10;;
4704;SDS011;2366;51.332;6.610;2022-10-16T14:43:52;1.30;;;0.80;;
4704;SDS011;2366;51.332;6.610;2022-10-16T14:46:20;5.17;;;0.97;;
4704;SDS011;2366;51.332;6.610;2022-10-16T14:48:58;8.03;;;1.50;;
4704;SDS011;2366;51.332;6.610;2022-10-16T14:51:30;4.07;;;0.80;;
4704;SDS011;2366;51.332;6.610;2022-10-16T14:53:55;2.43;;;0.87;;
4704;SDS011;2366;51.332;6.610;2022-10-16T14:56:22;3.37;;;0.97;;
4704;SDS011;2366;51.332;6.610;2022-10-16T14:58:50;1.38;;;0.95;;
4704;SDS011;2366;51.332;6.610;2022-10-16T15:01:16;2.50;;;1.33;;
4704;SDS011;2366;51.332;6.610;2022-10-16T15:03:42;4.07;;;1.53;;
4704;SDS011;2366;51.332;6.610;2022-10-16T15:06:11;1.43;;;0.93;;
4704;SDS011;2366;51.332;6.610;2022-10-16T15:08:38;2.38;;;0.93;;
4704;SDS011;2366;51.332;6.610;2022-10-16T15:11:03;1.63;;;1.00;;
4704;SDS011;2366;51.332;6.610;2022-10-16T15:13:29;2.80;;;1.00;;
4704;SDS011;2366;51.332;6.610;2022-10-16T15:15:54;3.57;;;1.00;;
4704;SDS011;2366;51.332;6.610;2022-10-16T15:18:20;4.20;;;0.80;;
4704;SDS011;2366;51.332;6.610;2022-10-16T15:20:49;6.15;;;0.98;;
4704;SDS011;2366;51.332;6.610;2022-10-16T15:23:16;1.35;;;0.93;;
4704;SDS011;2366;51.332;6.610;2022-10-16T15:25:45;2.00;;;1.70;;
4704;SDS011;2366;51.332;6.610;2022-10-16T15:28:13;5.07;;;2.05;;
4704;SDS011;2366;51.332;6.610;2022-10-16T15:30:40;2.88;;;1.35;;
4704;SDS011;2366;51.332;6.610;2022-10-16T15:33:10;2.85;;;1.15;;
4704;SDS011;2366;51.332;6.610;2022-10-16T15:35:38;1.85;;;1.50;;
4704;SDS011;2366;51.332;6.610;2022-10-16T15:38:03;0.80;;;0.80;;
4704;SDS011;2366;51.332;6.610;2022-10-16T15:40:28;5.20;;;2.30;;
4704;SDS011;2366;51.332;6.610;2022-10-16T15:42:54;3.33;;;1.73;;
4704;SDS011;2366;51.332;6.610;2022-10-16T15:45:19;4.53;;;1.70;;
4704;SDS011;2366;51.332;6.610;2022-10-16T15:47:45;1.57;;;1.27;;
4704;SDS011;2366;51.332;6.610;2022-10-16T15:50:12;8.67;;;1.33;;
4704;SDS011;2366;51.332;6.610;2022-10-16T15:52:38;11.98;;;3.75;;
4704;SDS011;2366;51.332;6.610;2022-10-16T15:55:08;2.85;;;2.33;;
4704;SDS011;2366;51.332;6.610;2022-10-16T15:57:35;5.53;;;2.50;;
4704;SDS011;2366;51.332;6.610;2022-10-16T16:00:04;7.20;;;2.63;;
4704;SDS011;2366;51.332;6.610;2022-10-16T16:02:31;11.90;;;3.60;;
4704;SDS011;2366;51.332;6.610;2022-10-16T16:04:56;5.40;;;3.73;;
4704;SDS011;2366;51.332;6.610;2022-10-16T16:07:22;4.47;;;2.60;;
4704;SDS011;2366;51.332;6.610;2022-10-16T16:09:47;3.77;;;2.73;;
4704;SDS011;2366;51.332;6.610;2022-10-16T16:12:13;4.90;;;3.30;;
4704;SDS011;2366;51.332;6.610;2022-10-16T16:14:38;5.80;;;2.20;;
4704;SDS011;2366;51.332;6.610;2022-10-16T16:17:03;5.50;;;2.40;;
4704;SDS011;2366;51.332;6.610;2022-10-16T16:19:29;4.63;;;1.90;;
4704;SDS011;2366;51.332;6.610;2022-10-16T16:21:54;6.50;;;2.50;;
4704;SDS011;2366;51.332;6.610;2022-10-16T16:24:20;6.27;;;2.37;;
4704;SDS011;2366;51.332;6.610;2022-10-16T16:26:45;6.17;;;2.60;;
4704;SDS011;2366;51.332;6.610;2022-10-16T16:31:36;5.67;;;2.10;;
4704;SDS011;2366;51.332;6.610;2022-10-16T16:34:01;3.47;;;2.30;;
4704;SDS011;2366;51.332;6.610;2022-10-16T16:36:28;3.00;;;2.08;;
4704;SDS011;2366;51.332;6.610;2022-10-16T16:38:54;3.80;;;3.40;;
4704;SDS011;2366;51.332;6.610;2022-10-16T16:41:20;14.73;;;2.40;;
4704;SDS011;2366;51.332;6.610;2022-10-16T16:43:47;4.93;;;2.20;;
4704;SDS011;2366;51.332;6.610;2022-10-16T16:46:13;4.80;;;3.40;;
4704;SDS011;2366;51.332;6.610;2022-10-16T16:48:39;4.97;;;3.30;;
4704;SDS011;2366;51.332;6.610;2022-10-16T16:51:07;4.65;;;2.10;;
4704;SDS011;2366;51.332;6.610;2022-10-16T16:53:34;5.85;;;3.17;;
4704;SDS011;2366;51.332;6.610;2022-10-16T16:56:01;2.85;;;2.22;;
4704;SDS011;2366;51.332;6.610;2022-10-16T16:58:30;4.50;;;2.55;;
4704;SDS011;2366;51.332;6.610;2022-10-16T17:00:56;5.70;;;3.15;;
4704;SDS011;2366;51.332;6.610;2022-10-16T17:03:25;7.88;;;3.28;;
4704;SDS011;2366;51.332;6.610;2022-10-16T17:05:58;8.32;;;4.20;;
4704;SDS011;2366;51.332;6.610;2022-10-16T17:08:27;4.93;;;3.10;;
4704;SDS011;2366;51.332;6.610;2022-10-16T17:10:53;6.60;;;3.73;;
4704;SDS011;2366;51.332;6.610;2022-10-16T17:13:23;3.25;;;2.28;;
4704;SDS011;2366;51.332;6.610;2022-10-16T17:15:50;7.57;;;2.95;;
4704;SDS011;2366;51.332;6.610;2022-10-16T17:18:17;7.57;;;2.60;;
4704;SDS011;2366;51.332;6.610;2022-10-16T17:20:43;2.90;;;2.33;;
4704;SDS011;2366;51.332;6.610;2022-10-16T17:23:09;5.70;;;2.70;;
4704;SDS011;2366;51.332;6.610;2022-10-16T17:25:36;13.45;;;2.60;;
4704;SDS011;2366;51.332;6.610;2022-10-16T17:28:02;7.67;;;2.63;;
4704;SDS011;2366;51.332;6.610;2022-10-16T17:30:28;9.15;;;4.00;;
4704;SDS011;2366;51.332;6.610;2022-10-16T17:32:53;8.87;;;4.97;;
4704;SDS011;2366;51.332;6.610;2022-10-16T17:35:19;11.07;;;4.20;;
4704;SDS011;2366;51.332;6.610;2022-10-16T17:37:44;8.00;;;3.03;;
4704;SDS011;2366;51.332;6.610;2022-10-16T17:40:09;6.30;;;3.23;;
4704;SDS011;2366;51.332;6.610;2022-10-16T17:42:35;10.47;;;4.37;;
4704;SDS011;2366;51.332;6.610;2022-10-16T17:45:01;8.80;;;2.83;;
4704;SDS011;2366;51.332;6.610;2022-10-16T17:47:27;7.13;;;2.43;;